createdAt,value
2022-12-26T00:00:38.856Z,94.21
2022-12-26T00:03:06.678Z,94.34
2022-12-26T00:05:37.924Z,94.37
2022-12-26T00:08:05.442Z,93.97
2022-12-26T00:10:32.645Z,93.99
2022-12-26T00:13:39.159Z,94.05
2022-12-26T00:15:48.227Z,93.95
2022-12-26T00:18:15.638Z,93.97
2022-12-26T00:20:43.088Z,93.48
2022-12-26T00:23:10.592Z,93.81
2022-12-26T00:25:37.881Z,93.63
2022-12-26T00:28:04.760Z,92.66
2022-12-26T00:30:31.369Z,91.54
2022-12-26T00:32:58.531Z,91.36
2022-12-26T00:35:26.049Z,91.64
2022-12-26T00:37:54.409Z,91.59
2022-12-26T00:40:21.526Z,91.51
2022-12-26T00:42:49.014Z,91.03
2022-12-26T00:45:16.273Z,90.60
2022-12-26T00:47:43.595Z,90.48
2022-12-26T00:50:14.649Z,90.73
2022-12-26T00:52:42.632Z,90.72
2022-12-26T00:55:10.278Z,90.87
2022-12-26T00:57:37.972Z,90.94
2022-12-26T01:00:06.103Z,91.32
2022-12-26T01:02:39.850Z,90.43
2022-12-26T01:05:09.986Z,90.36
2022-12-26T01:08:21.212Z,90.59
2022-12-26T01:10:27.739Z,90.30
2022-12-26T01:12:55.221Z,90.27
2022-12-26T01:15:22.450Z,89.61
2022-12-26T01:17:49.992Z,89.30
2022-12-26T01:20:17.799Z,89.39
2022-12-26T01:22:45.215Z,89.66
2022-12-26T01:25:13.135Z,89.59
2022-12-26T01:27:41.809Z,89.11
2022-12-26T01:30:09.966Z,87.59
2022-12-26T01:32:37.449Z,87.64
2022-12-26T01:35:05.145Z,88.18
2022-12-26T01:37:32.326Z,88.06
2022-12-26T01:39:59.301Z,88.51
2022-12-26T01:42:35.549Z,88.31
2022-12-26T01:45:21.872Z,88.43
2022-12-26T01:48:04.426Z,88.13
2022-12-26T01:50:47.336Z,88.05
2022-12-26T01:53:29.943Z,88.46
2022-12-26T01:56:05.883Z,88.17
2022-12-26T01:58:36.299Z,87.86
2022-12-26T02:01:05.893Z,88.05
2022-12-26T02:03:51.712Z,87.47
2022-12-26T02:06:18.408Z,87.57
2022-12-26T02:08:46.516Z,87.96
2022-12-26T02:11:27.661Z,87.90
2022-12-26T02:13:54.900Z,88.78
2022-12-26T02:16:21.924Z,88.16
2022-12-26T02:18:48.535Z,88.47
2022-12-26T02:21:30.508Z,88.17
2022-12-26T02:24:08.976Z,87.86
2022-12-26T02:27:06.431Z,88.35
2022-12-26T02:29:54.645Z,88.54
2022-12-26T02:33:05.644Z,88.70
2022-12-26T02:35:41.165Z,88.57
2022-12-26T02:38:26.475Z,87.82
2022-12-26T02:41:13.268Z,88.07
2022-12-26T02:44:24.530Z,87.72
2022-12-26T02:47:03.474Z,87.00
2022-12-26T02:50:12.634Z,87.60
2022-12-26T02:53:24.950Z,87.99
2022-12-26T02:56:18.155Z,88.26
2022-12-26T02:59:54.386Z,88.17
2022-12-26T03:03:08.705Z,88.37
2022-12-26T03:06:01.449Z,87.86
2022-12-26T03:08:54.899Z,87.31
2022-12-26T03:11:46.070Z,87.39
2022-12-26T03:14:19.683Z,86.89
2022-12-26T03:17:10.273Z,87.21
2022-12-26T03:19:58.728Z,87.23
2022-12-26T03:22:33.311Z,87.14
2022-12-26T03:25:21.973Z,87.31
2022-12-26T03:27:49.197Z,86.71
2022-12-26T03:30:35.528Z,86.97
2022-12-26T03:33:03.450Z,87.62
2022-12-26T03:35:34.298Z,88.69
2022-12-26T03:38:14.608Z,88.33
2022-12-26T03:41:14.205Z,88.49
2022-12-26T03:44:12.486Z,88.58
2022-12-26T03:47:06.198Z,87.76
2022-12-26T03:50:00.440Z,87.99
2022-12-26T03:52:56.216Z,87.20
2022-12-26T03:55:59.044Z,87.52
2022-12-26T03:59:02.735Z,87.42
2022-12-26T04:01:50.673Z,87.96
2022-12-26T04:04:39.394Z,87.81
2022-12-26T04:07:31.462Z,88.43
2022-12-26T04:10:30.339Z,87.91
2022-12-26T04:13:18.022Z,88.15
2022-12-26T04:16:06.551Z,87.90
2022-12-26T04:19:19.583Z,87.81
2022-12-26T04:22:13.434Z,87.81
2022-12-26T04:25:12.415Z,87.47
2022-12-26T04:27:57.723Z,87.97
2022-12-26T04:30:43.224Z,88.21
2022-12-26T04:33:36.748Z,88.19
2022-12-26T04:36:28.692Z,87.80
2022-12-26T04:39:20.967Z,87.42
2022-12-26T04:42:07.945Z,87.73
2022-12-26T04:44:35.936Z,87.95
2022-12-26T04:47:02.581Z,87.59
2022-12-26T04:49:47.746Z,87.53
2022-12-26T04:52:15.364Z,87.67
2022-12-26T04:54:42.294Z,87.80
2022-12-26T04:57:09.143Z,87.67
2022-12-26T04:59:35.730Z,87.53
2022-12-26T05:02:20.985Z,87.22
2022-12-26T05:05:06.354Z,86.38
2022-12-26T05:07:54.065Z,86.08
2022-12-26T05:10:26.614Z,86.01
2022-12-26T05:12:54.003Z,86.15
2022-12-26T05:15:21.706Z,85.75
2022-12-26T05:18:07.031Z,85.54
2022-12-26T05:20:39.578Z,85.52
2022-12-26T05:23:35.208Z,84.86
2022-12-26T05:26:20.860Z,83.93
2022-12-26T05:28:56.341Z,84.40
2022-12-26T05:31:23.039Z,84.30
2022-12-26T05:34:08.076Z,84.66
2022-12-26T05:36:49.662Z,85.03
2022-12-26T05:39:16.581Z,85.18
2022-12-26T05:41:43.585Z,85.18
2022-12-26T05:44:11.135Z,85.26
2022-12-26T05:46:38.537Z,85.34
2022-12-26T05:49:06.051Z,85.16
2022-12-26T05:51:32.803Z,85.35
2022-12-26T05:53:59.574Z,84.98
2022-12-26T05:56:26.657Z,85.23
2022-12-26T05:58:57.776Z,85.15
2022-12-26T06:01:26.047Z,84.22
2022-12-26T06:03:55.695Z,84.33
2022-12-26T06:06:23.682Z,84.77
2022-12-26T06:08:52.245Z,84.79
2022-12-26T06:11:20.080Z,84.78
2022-12-26T06:13:46.969Z,84.79
2022-12-26T06:16:16.092Z,84.15
2022-12-26T06:18:43.437Z,85.09
2022-12-26T06:21:12.982Z,85.01
2022-12-26T06:23:40.373Z,86.01
2022-12-26T06:26:09.560Z,87.64
2022-12-26T06:28:36.754Z,89.90
2022-12-26T06:31:09.525Z,91.45
2022-12-26T06:33:36.462Z,94.49
2022-12-26T06:36:14.771Z,95.12
2022-12-26T06:38:41.987Z,95.01
2022-12-26T06:41:10.829Z,94.07
2022-12-26T06:43:38.245Z,92.29
2022-12-26T06:46:06.803Z,94.31
2022-12-26T06:48:39.324Z,95.07
2022-12-26T06:51:10.838Z,97.43
2022-12-26T06:53:37.469Z,99.84
2022-12-26T06:56:09.664Z,99.65
2022-12-26T06:58:36.423Z,100.00
2022-12-26T07:01:08.678Z,100.00
2022-12-26T07:03:35.382Z,100.00
2022-12-26T07:06:06.751Z,100.00
2022-12-26T07:08:34.315Z,100.00
2022-12-26T07:11:01.002Z,100.00
2022-12-26T07:13:27.806Z,100.00
2022-12-26T07:15:54.679Z,100.00
2022-12-26T07:18:21.307Z,100.00
2022-12-26T07:20:48.068Z,100.00
2022-12-26T07:23:14.642Z,100.00
2022-12-26T07:25:41.237Z,100.00
2022-12-26T07:28:07.854Z,100.00
2022-12-26T07:30:34.433Z,100.00
2022-12-26T07:33:00.977Z,100.00
2022-12-26T07:35:27.558Z,100.00
2022-12-26T07:37:54.121Z,100.00
2022-12-26T07:40:20.757Z,100.00
2022-12-26T07:42:47.333Z,100.00
2022-12-26T07:45:14.284Z,100.00
2022-12-26T07:47:41.806Z,100.00
2022-12-26T07:50:08.876Z,100.00
2022-12-26T07:52:35.435Z,100.00
2022-12-26T07:55:02.037Z,100.00
2022-12-26T07:57:47.914Z,100.00
2022-12-26T08:00:15.373Z,100.00
2022-12-26T08:02:41.985Z,100.00
2022-12-26T08:05:08.822Z,100.00
2022-12-26T08:07:35.416Z,100.00
2022-12-26T08:10:02.213Z,100.00
2022-12-26T08:12:28.832Z,100.00
2022-12-26T08:14:55.403Z,100.00
2022-12-26T08:17:22.034Z,100.00
2022-12-26T08:19:48.697Z,100.00
2022-12-26T08:22:15.469Z,100.00
2022-12-26T08:24:42.090Z,100.00
2022-12-26T08:27:09.170Z,100.00
2022-12-26T08:29:35.730Z,100.00
2022-12-26T08:32:02.533Z,100.00
2022-12-26T08:34:33.960Z,100.00
2022-12-26T08:37:00.610Z,100.00
2022-12-26T08:39:27.520Z,100.00
2022-12-26T08:41:54.142Z,100.00
2022-12-26T08:44:28.923Z,100.00
2022-12-26T08:46:55.991Z,100.00
2022-12-26T08:49:22.817Z,100.00
2022-12-26T08:51:49.521Z,100.00
2022-12-26T08:54:16.068Z,100.00
2022-12-26T08:56:42.665Z,100.00
2022-12-26T08:59:09.256Z,100.00
2022-12-26T09:01:35.952Z,100.00
2022-12-26T09:04:04.103Z,100.00
2022-12-26T09:06:35.885Z,99.86
2022-12-26T09:09:03.798Z,99.60
2022-12-26T09:11:30.831Z,99.38
2022-12-26T09:14:00.473Z,100.00
2022-12-26T09:16:35.601Z,98.88
2022-12-26T09:19:05.963Z,97.40
2022-12-26T09:21:32.927Z,97.38
2022-12-26T09:24:01.546Z,96.79
2022-12-26T09:26:28.848Z,96.82
2022-12-26T09:28:55.851Z,96.18
2022-12-26T09:31:25.110Z,95.14
2022-12-26T09:33:53.457Z,94.54
2022-12-26T09:36:31.615Z,94.52
2022-12-26T09:38:59.399Z,94.55
2022-12-26T09:41:44.120Z,94.16
2022-12-26T09:44:26.227Z,94.47
2022-12-26T09:47:12.179Z,93.88
2022-12-26T09:50:01.701Z,93.82
2022-12-26T09:53:00.327Z,93.46
2022-12-26T09:55:51.382Z,92.07
2022-12-26T09:58:55.461Z,91.57
2022-12-26T10:01:34.595Z,92.99
2022-12-26T10:04:04.577Z,92.28
2022-12-26T10:06:38.874Z,92.86
2022-12-26T10:09:33.012Z,91.75
2022-12-26T10:12:07.267Z,93.48
2022-12-26T10:14:59.269Z,91.84
2022-12-26T10:17:50.418Z,90.64
2022-12-26T10:20:29.730Z,90.45
2022-12-26T10:23:20.048Z,91.02
2022-12-26T10:26:09.672Z,91.21
2022-12-26T10:28:44.437Z,92.19
2022-12-26T10:31:42.201Z,91.77
2022-12-26T10:34:33.190Z,90.42
2022-12-26T10:37:04.905Z,90.26
2022-12-26T10:39:42.334Z,92.57
2022-12-26T10:42:19.168Z,90.07
2022-12-26T10:44:45.809Z,89.13
2022-12-26T10:47:28.195Z,90.62
2022-12-26T10:49:54.976Z,92.03
2022-12-26T10:52:27.936Z,90.04
2022-12-26T10:55:29.398Z,88.47
2022-12-26T10:57:50.238Z,87.13
2022-12-26T11:00:23.972Z,87.56
2022-12-26T11:03:08.296Z,88.27
2022-12-26T11:06:06.412Z,88.57
2022-12-26T11:08:50.835Z,88.79
2022-12-26T11:11:25.217Z,88.11
2022-12-26T11:14:02.294Z,87.89
2022-12-26T11:16:34.619Z,88.17
2022-12-26T11:19:02.494Z,88.71
2022-12-26T11:21:32.584Z,88.84
2022-12-26T11:24:08.796Z,90.25
2022-12-26T11:26:37.672Z,90.07
2022-12-26T11:29:10.765Z,89.20
2022-12-26T11:31:39.750Z,89.81
2022-12-26T11:34:17.342Z,89.94
2022-12-26T11:36:50.413Z,89.87
2022-12-26T11:39:25.250Z,88.74
2022-12-26T11:41:53.702Z,89.19
2022-12-26T11:44:29.829Z,90.08
2022-12-26T11:47:12.281Z,89.49
2022-12-26T11:49:49.575Z,89.88
2022-12-26T11:52:37.715Z,88.90
2022-12-26T11:55:28.600Z,86.54
2022-12-26T11:58:15.860Z,87.35
2022-12-26T12:00:50.081Z,86.58
2022-12-26T12:03:46.927Z,84.75
2022-12-26T12:06:41.775Z,84.92
2022-12-26T12:09:35.924Z,85.41
2022-12-26T12:12:14.949Z,84.43
2022-12-26T12:14:48.156Z,83.92
2022-12-26T12:17:38.355Z,84.32
2022-12-26T12:20:27.122Z,84.70
2022-12-26T12:23:21.602Z,86.04
2022-12-26T12:26:06.728Z,88.14
2022-12-26T12:28:43.885Z,90.50
2022-12-26T12:31:19.246Z,91.60
2022-12-26T12:34:20.623Z,92.53
2022-12-26T12:37:02.965Z,93.19
2022-12-26T12:39:38.389Z,93.45
2022-12-26T12:42:20.160Z,93.20
2022-12-26T12:45:13.852Z,91.54
2022-12-26T12:47:50.822Z,90.75
2022-12-26T12:50:28.714Z,88.26
2022-12-26T12:53:09.356Z,87.43
2022-12-26T12:55:41.940Z,88.37
2022-12-26T12:58:43.991Z,87.86
2022-12-26T13:01:22.910Z,86.87
2022-12-26T13:04:36.405Z,86.59
2022-12-26T13:07:13.068Z,87.17
2022-12-26T13:09:51.690Z,86.65
2022-12-26T13:12:22.861Z,86.76
2022-12-26T13:14:56.390Z,87.06
2022-12-26T13:17:38.323Z,87.77
2022-12-26T13:20:13.290Z,88.12
2022-12-26T13:23:08.111Z,88.58
2022-12-26T13:25:41.121Z,89.42
2022-12-26T13:28:16.038Z,90.56
2022-12-26T13:30:42.784Z,91.60
2022-12-26T13:33:14.168Z,91.59
2022-12-26T13:35:50.445Z,91.38
2022-12-26T13:38:17.022Z,92.62
2022-12-26T13:41:17.970Z,92.79
2022-12-26T13:44:04.523Z,93.77
2022-12-26T13:46:55.607Z,94.06
2022-12-26T13:49:36.204Z,93.36
2022-12-26T13:52:11.829Z,93.08
2022-12-26T13:54:58.445Z,93.16
2022-12-26T13:57:36.744Z,93.43
2022-12-26T14:00:23.516Z,94.41
2022-12-26T14:03:28.197Z,95.45
2022-12-26T14:06:25.770Z,95.46
2022-12-26T14:09:33.673Z,95.67
2022-12-26T14:12:14.009Z,95.07
2022-12-26T14:15:03.873Z,96.61
2022-12-26T14:17:59.022Z,96.22
2022-12-26T14:20:43.821Z,95.58
2022-12-26T14:23:28.885Z,95.64
2022-12-26T14:26:21.236Z,95.74
2022-12-26T14:29:03.109Z,95.48
2022-12-26T14:31:36.397Z,95.08
2022-12-26T14:34:24.053Z,94.63
2022-12-26T14:37:23.304Z,94.48
2022-12-26T14:40:08.285Z,94.55
2022-12-26T14:43:12.097Z,94.90
2022-12-26T14:45:46.727Z,95.28
2022-12-26T14:48:16.285Z,94.84
2022-12-26T14:50:50.137Z,94.95
2022-12-26T14:53:29.987Z,94.68
2022-12-26T14:56:10.262Z,94.88
2022-12-26T14:58:47.288Z,94.97
2022-12-26T15:01:15.914Z,94.58
2022-12-26T15:03:49.374Z,93.95
2022-12-26T15:06:21.722Z,94.25
2022-12-26T15:09:08.505Z,93.98
2022-12-26T15:12:10.538Z,94.36
2022-12-26T15:14:49.219Z,94.29
2022-12-26T15:17:53.545Z,93.09
2022-12-26T15:20:35.549Z,93.61
2022-12-26T15:23:34.510Z,93.92
2022-12-26T15:26:38.195Z,93.89
2022-12-26T15:29:33.086Z,94.10
2022-12-26T15:32:06.653Z,93.98
2022-12-26T15:34:52.035Z,94.19
2022-12-26T15:37:37.133Z,94.35
2022-12-26T15:40:14.690Z,95.59
2022-12-26T15:42:56.987Z,97.24
2022-12-26T15:45:36.284Z,97.29
2022-12-26T15:48:34.935Z,97.73
2022-12-26T15:51:09.665Z,93.85
2022-12-26T15:54:26.667Z,89.99
2022-12-26T15:57:02.008Z,92.34
2022-12-26T15:59:41.828Z,91.08
2022-12-26T16:02:15.449Z,91.89
2022-12-26T16:04:52.430Z,92.15
2022-12-26T16:07:34.757Z,93.50
2022-12-26T16:10:02.302Z,92.55
2022-12-26T16:12:32.569Z,93.42
2022-12-26T16:15:12.136Z,93.53
2022-12-26T16:17:41.022Z,93.84
2022-12-26T16:20:51.205Z,94.94
2022-12-26T16:23:23.971Z,94.99
2022-12-26T16:25:56.127Z,95.84
2022-12-26T16:28:28.463Z,96.58
2022-12-26T16:30:57.558Z,96.74
2022-12-26T16:33:25.816Z,96.58
2022-12-26T16:35:58.993Z,96.48
2022-12-26T16:38:31.898Z,96.13
2022-12-26T16:41:00.704Z,96.46
2022-12-26T16:43:35.004Z,96.06
2022-12-26T16:46:06.934Z,96.57
2022-12-26T16:48:36.462Z,96.51
2022-12-26T16:51:25.385Z,97.21
2022-12-26T16:53:53.038Z,97.22
2022-12-26T16:56:27.571Z,97.88
2022-12-26T16:59:05.579Z,98.79
2022-12-26T17:01:35.156Z,98.73
2022-12-26T17:04:21.455Z,97.98
2022-12-26T17:07:09.282Z,97.74
2022-12-26T17:09:44.859Z,98.13
2022-12-26T17:12:26.031Z,98.69
2022-12-26T17:14:56.352Z,99.33
2022-12-26T17:17:23.730Z,100.00
2022-12-26T17:19:54.339Z,100.00
2022-12-26T17:22:31.255Z,99.93
2022-12-26T17:25:30.743Z,100.00
2022-12-26T17:28:14.984Z,100.00
2022-12-26T17:30:44.060Z,100.00
2022-12-26T17:33:15.106Z,100.00
2022-12-26T17:36:38.181Z,100.00
2022-12-26T17:38:31.992Z,100.00
2022-12-26T17:41:02.689Z,100.00
2022-12-26T17:43:33.830Z,100.00
2022-12-26T17:46:01.718Z,100.00
2022-12-26T17:48:29.028Z,100.00
2022-12-26T17:51:00.347Z,100.00
2022-12-26T17:53:33.143Z,99.60
2022-12-26T17:56:06.287Z,97.13
2022-12-26T17:58:34.374Z,98.56
2022-12-26T18:01:01.107Z,99.65
2022-12-26T18:03:28.931Z,100.00
2022-12-26T18:05:59.082Z,100.00
2022-12-26T18:08:29.597Z,100.00
2022-12-26T18:10:56.780Z,100.00
2022-12-26T18:13:23.947Z,100.00
2022-12-26T18:15:52.542Z,100.00
2022-12-26T18:18:26.922Z,98.34
2022-12-26T18:20:53.633Z,95.35
2022-12-26T18:23:20.274Z,89.86
2022-12-26T18:25:51.455Z,87.44
2022-12-26T18:28:20.994Z,84.41
2022-12-26T18:30:47.647Z,83.80
2022-12-26T18:33:14.780Z,81.97
2022-12-26T18:35:43.255Z,81.99
2022-12-26T18:38:14.702Z,80.70
2022-12-26T18:40:44.545Z,81.70
2022-12-26T18:43:11.303Z,81.86
2022-12-26T18:45:38.957Z,83.04
2022-12-26T18:48:07.166Z,82.85
2022-12-26T18:50:34.884Z,83.21
2022-12-26T18:53:01.584Z,82.14
2022-12-26T18:55:28.907Z,83.46
2022-12-26T18:57:56.009Z,83.77
2022-12-26T19:00:23.965Z,84.56
2022-12-26T19:02:52.611Z,82.57
2022-12-26T19:05:23.200Z,81.37
2022-12-26T19:07:50.436Z,80.58
2022-12-26T19:10:19.322Z,79.89
2022-12-26T19:12:45.890Z,81.03
2022-12-26T19:15:13.804Z,81.76
2022-12-26T19:17:42.138Z,81.70
2022-12-26T19:20:18.055Z,81.98
2022-12-26T19:22:45.620Z,82.44
2022-12-26T19:25:13.488Z,82.18
2022-12-26T19:27:40.494Z,81.90
2022-12-26T19:30:08.254Z,80.64
2022-12-26T19:32:35.062Z,78.48
2022-12-26T19:35:01.824Z,78.90
2022-12-26T19:37:29.298Z,77.48
2022-12-26T19:39:56.519Z,77.69
2022-12-26T19:42:23.083Z,77.79
2022-12-26T19:44:49.693Z,78.43
2022-12-26T19:47:16.727Z,77.42
2022-12-26T19:49:43.674Z,79.29
2022-12-26T19:52:11.597Z,79.50
2022-12-26T19:54:38.758Z,78.95
2022-12-26T19:57:06.020Z,79.93
2022-12-26T19:59:32.811Z,80.03
2022-12-26T20:01:59.887Z,79.96
2022-12-26T20:04:27.227Z,80.13
2022-12-26T20:06:54.740Z,79.89
2022-12-26T20:09:22.367Z,80.28
2022-12-26T20:11:50.018Z,80.07
2022-12-26T20:14:20.497Z,79.64
2022-12-26T20:17:06.856Z,79.34
2022-12-26T20:19:35.835Z,79.52
2022-12-26T20:22:04.422Z,80.43
2022-12-26T20:24:31.852Z,78.12
2022-12-26T20:26:59.512Z,77.05
2022-12-26T20:29:27.008Z,77.35
2022-12-26T20:31:57.318Z,77.00
2022-12-26T20:34:25.244Z,76.48
2022-12-26T20:36:52.773Z,76.87
2022-12-26T20:39:20.264Z,77.43
2022-12-26T20:41:48.063Z,77.86
2022-12-26T20:44:18.777Z,78.63
2022-12-26T20:46:47.038Z,79.10
2022-12-26T20:49:14.794Z,78.97
2022-12-26T20:51:44.405Z,78.88
2022-12-26T20:54:12.710Z,79.80
2022-12-26T20:56:39.560Z,79.90
2022-12-26T20:59:07.053Z,79.99
2022-12-26T21:01:34.091Z,80.92
2022-12-26T21:04:01.294Z,80.82
2022-12-26T21:06:31.670Z,81.22
2022-12-26T21:08:58.624Z,82.09
2022-12-26T21:11:28.060Z,81.09
2022-12-26T21:13:57.782Z,80.97
2022-12-26T21:16:31.026Z,81.24
2022-12-26T21:18:58.148Z,80.48
2022-12-26T21:21:27.690Z,79.84
2022-12-26T21:24:00.001Z,80.02
2022-12-26T21:26:27.087Z,80.53
2022-12-26T21:28:59.871Z,80.31
2022-12-26T21:31:27.497Z,80.40
2022-12-26T21:33:59.036Z,80.46
2022-12-26T21:36:26.803Z,81.22
2022-12-26T21:38:54.373Z,81.22
2022-12-26T21:41:21.927Z,81.39
2022-12-26T21:43:49.209Z,81.46
2022-12-26T21:46:18.730Z,80.56
2022-12-26T21:48:49.942Z,81.03
2022-12-26T21:51:18.222Z,82.05
2022-12-26T21:53:45.184Z,81.81
2022-12-26T21:56:13.277Z,82.13
2022-12-26T21:58:59.439Z,81.76
2022-12-26T22:01:27.471Z,82.14
2022-12-26T22:04:13.230Z,83.83
2022-12-26T22:06:40.794Z,84.27
2022-12-26T22:09:08.121Z,84.44
2022-12-26T22:11:55.112Z,84.65
2022-12-26T22:14:22.336Z,84.67
2022-12-26T22:16:54.816Z,85.44
2022-12-26T22:19:24.538Z,85.96
2022-12-26T22:21:53.472Z,85.66
2022-12-26T22:24:22.304Z,86.31
2022-12-26T22:26:50.185Z,87.36
2022-12-26T22:29:18.013Z,86.95
2022-12-26T22:31:47.635Z,87.09
2022-12-26T22:34:17.123Z,86.26
2022-12-26T22:36:44.570Z,85.87
2022-12-26T22:39:17.798Z,85.43
2022-12-26T22:41:46.175Z,85.89
2022-12-26T22:44:14.837Z,84.55
2022-12-26T22:46:43.155Z,85.43
2022-12-26T22:49:10.510Z,84.56
2022-12-26T22:51:38.126Z,85.26
2022-12-26T22:54:05.873Z,84.83
2022-12-26T22:56:33.681Z,84.74
2022-12-26T22:59:01.582Z,85.72
2022-12-26T23:01:29.748Z,84.97
2022-12-26T23:03:57.503Z,85.06
2022-12-26T23:06:34.359Z,84.85
2022-12-26T23:09:05.184Z,84.61
2022-12-26T23:11:35.676Z,84.60
2022-12-26T23:14:08.907Z,85.67
2022-12-26T23:16:45.916Z,84.44
2022-12-26T23:19:36.929Z,85.61
2022-12-26T23:22:04.042Z,85.59
2022-12-26T23:24:32.203Z,85.64
2022-12-26T23:27:22.030Z,85.84
2022-12-26T23:30:08.871Z,85.29
2022-12-26T23:32:36.283Z,84.99
2022-12-26T23:35:04.360Z,85.71
2022-12-26T23:37:31.036Z,85.53
2022-12-26T23:39:57.641Z,85.70
2022-12-26T23:42:24.199Z,85.87
2022-12-26T23:44:51.448Z,85.85
2022-12-26T23:47:18.021Z,87.05
2022-12-26T23:49:44.580Z,86.39
2022-12-26T23:52:11.190Z,86.09
2022-12-26T23:54:37.803Z,85.95
2022-12-26T23:57:04.439Z,85.96
2022-12-26T23:59:31.048Z,86.24
